Sweeney Granite Mountains, California Weather observations

Data are for 10 minute period ending at time listed.
 Day   Time   Solar   Ave.   Ave.  Ave.  Vector  Max.   Baro.   Total    
  of    of     Rad.   Air    Rel.  Wind   Wind   Wind  Press.  Precip.   
Year   Day            Temp.  Hum.  Speed  Dir.   Gust                    
2015   (PST)  Kw/m2    F      %     mph   deg.    mph    mb.     in.     
-------------------------------------------------------------------------
 214    3:10   0.00   76.7    33    1.9   213     4.2   869.8    0.00 
 214    3:20   0.00   76.0    34    1.6    82     2.8   869.8    0.00 
 214    3:30   0.00   75.7    35    1.9   102     4.2   869.8    0.00 
 214    3:40   0.00   75.4    35    2.5   102     5.0   869.8    0.00 
 214    3:50   0.00   74.8    32    1.0   111     3.9   869.8    0.00 
 214    4:00   0.00   75.0    34    2.1   320     8.7   869.9    0.00 
 214    4:10   0.00   76.7    25    4.3   329     7.2   869.9    0.00 
 214    4:20   0.00   76.6    26    5.0   318     8.5   869.9    0.00 
 214    4:30   0.00   75.8    26    5.8   311    10.1   869.9    0.00 
 214    4:40   0.00   76.2    26    8.1   298    12.3   869.9    0.00 
 214    4:50   0.00   76.7    24    8.8   302    12.4   869.9    0.00 
 214    5:00   0.00   77.8    21    6.7   306    11.8   869.8    0.00 
 214    5:10   0.00   77.0    22    5.5   294    10.1   869.9    0.00 
 214    5:20   0.01   76.3    24    4.3   281     5.9   870.0    0.00 
 214    5:30   0.01   74.7    28    3.7   284     5.3   870.1    0.00 
 214    5:40   0.01   73.8    30    2.6   259     4.0   870.1    0.00 
 214    5:50   0.09   74.2    29    1.3   326     2.6   870.2    0.00 
 214    6:00   0.13   78.4    26    0.6   289     1.3   870.2    0.00 
 214    6:10   0.16   81.2    24    1.3   304     2.0   870.3    0.00 
 214    6:20   0.20   82.4    23    0.5   349     1.6   870.4    0.00 
 214    6:30   0.23   83.5    22    1.1    94     2.1   870.5    0.00 
 214    6:40   0.27   83.3    22    1.5   120     3.7   870.6    0.00 
 214    6:50   0.30   84.4    22    0.9   142     3.1   870.6    0.00 
 214    7:00   0.34   83.7    23    2.2   114     4.5   870.7    0.00 
 214    7:10   0.38   83.8    23    1.2   152     3.0   870.8    0.00 
 214    7:20   0.41   85.2    22    2.0   138     3.8   870.9    0.00 
 214    7:30   0.45   84.4    21    1.7    80     4.0   870.9    0.00 
 214    7:40   0.48   84.3    20    3.2   177     5.6   871.0    0.00 
 214    7:50   0.51   85.1    20    2.9   221     7.5   871.0    0.00 
 214    8:00   0.55   85.0    20    2.4   211     7.4   871.0    0.00 
 214    8:10   0.58   85.4    21    2.1   169     7.5   871.0    0.00 
 214    8:20   0.61   84.5    22    5.2    80    11.8   871.0    0.00 
 214    8:30   0.64   84.2    22    4.1    83     7.4   871.0    0.00 
 214    8:40   0.67   86.3    21    1.6    25     4.9   870.9    0.00 
 214    8:50   0.71   86.1    20    2.6   168     7.5   870.9    0.00 
 214    9:00   0.73   85.9    20    3.7    80    11.2   870.9    0.00 
 214    9:10   0.76   87.5    18    3.5   206     8.3   870.9    0.00 
 214    9:20   0.79   87.4    18    3.6   204     8.6   870.9    0.00 
 214    9:30   0.81   86.9    18    4.6   216    12.3   870.9    0.00 
 214    9:40   0.84   87.2    18    3.3    93     9.1   870.9    0.00 
 214    9:50   0.86   87.9    18    2.7   171     7.2   870.9    0.00 
 214   10:00   0.88   87.6    18    5.6   214    11.7   870.8    0.00 
 214   10:10   0.90   88.0    19    2.9   171     8.3   870.8    0.00 
 214   10:20   0.91   89.1    19    5.2   111    12.3   870.7    0.00 
 214   10:30   0.92   88.6    19    5.0   178    14.5   870.7    0.00 
 214   10:40   0.94   88.9    19    4.3   175    12.1   870.7    0.00 
 214   10:50   0.95   88.6    18    7.4   112    14.0   870.6    0.00 
 214   11:00   0.96   88.8    17    4.5   250    11.1   870.6    0.00 
 214   11:10   0.97   89.6    17    3.9   248     9.4   870.5    0.00 
 214   11:20   0.97   89.7    17    5.6   196    14.2   870.4    0.00 
 214   11:30   0.99   90.8    17    2.8   264     8.2   870.3    0.00 
 214   11:40   0.98   90.3    17    5.0   171     9.6   870.3    0.00 
 214   11:50   0.99   90.2    17    4.3   165     9.6   870.2    0.00 
 214   12:00   1.00   90.0    17    3.5   164     7.9   870.1    0.00 
 214   12:10   1.00   91.4    16    3.3   314     9.5   870.0    0.00 
 214   12:20   1.01   91.3    16    4.7   195    13.0   869.9    0.00 
 214   12:30   0.97   91.7    16    4.3   240    11.2   869.9    0.00 
 214   12:40   0.98   91.4    16    5.6   201    10.8   869.9    0.00 
 214   12:50   0.91   91.2    16    2.7   252     7.8   869.8    0.00 
 214   13:00   0.97   92.1    15    5.9   307    13.5   869.7    0.00 
 214   13:10   0.97   91.4    16    9.2   308    19.2   869.6    0.00 
 214   13:20   0.98   91.7    16    9.7   306    16.9   869.5    0.00 
 214   13:30   0.98   92.4    15    8.8   292    15.9   869.5    0.00 
 214   13:40   0.88   92.2    16    9.5   304    15.1   869.3    0.00 
 214   13:50   0.95   91.6    16    6.1   292    10.4   869.2    0.00 
 214   14:00   0.91   93.4    15    3.9   298     8.6   869.0    0.00 
 214   14:10   0.90   93.3    15    3.3   275    11.2   868.9    0.00 
 214   14:20   0.87   92.4    15    6.5   293    12.5   868.8    0.00 
 214   14:30   0.83   92.6    15    6.3   251    16.7   868.7    0.00 
 214   14:40   0.81   92.6    15    8.0   218    15.1   868.7    0.00 
 214   14:50   0.78   92.4    14    6.3   229    14.6   868.6    0.00 
 214   15:00   0.60   91.1    15    5.1   209    12.1   868.5    0.00 
 214   15:10   0.70   92.2    14    2.9    70     7.3   868.3    0.00 
 214   15:20   0.66   93.1    14    6.1   249    14.6   868.2    0.00 
 214   15:30   0.63   92.6    14    4.6   276    12.7   868.1    0.00 
 214   15:40   0.60   92.1    14    6.0   219    14.8   868.0    0.00 
 214   15:50   0.56   91.8    14    5.3   225    14.8   867.9    0.00 
 214   16:00   0.53   91.1    14    8.0   223    14.9   867.8    0.00 
 214   16:10   0.49   91.3    14    7.4   237    13.2   867.8    0.00 
 214   16:20   0.39   91.7    14    4.3   226     9.9   867.7    0.00 
 214   16:30   0.42   92.9    14    5.4   244    15.5   867.6    0.00 
 214   16:40   0.39   91.7    14    5.4   247    11.6   867.6    0.00 
 214   16:50   0.34   92.4    14    2.6   215     7.3   867.6    0.00 
 214   17:00   0.31   92.6    13    3.2   215     8.1   867.5    0.00 
 214   17:10   0.27   91.7    14    3.4   113     9.9   867.4    0.00 
 214   17:20   0.23   91.0    14    7.2    99    13.5   867.3    0.00 
 214   17:30   0.20   90.5    14    7.0   130    15.1   867.2    0.00 
 214   17:40   0.16   89.9    16    9.6   268    15.6   867.3    0.00 
 214   17:50   0.03   88.7    17    3.1   254     6.5   867.4    0.00 
 214   18:00   0.01   87.5    16    3.0   298     6.1   867.5    0.00 
 214   18:10   0.01   86.9    16    4.2   274     6.4   867.7    0.00 
 214   18:20   0.01   87.3    15    2.3   153     4.6   867.7    0.00 
 214   18:30   0.01   86.5    16    2.0   110     4.3   867.8    0.00 
 214   18:40   0.00   85.5    18    2.5   276     7.6   867.8    0.00 
 214   18:50   0.00   85.1    18    5.5   345     9.5   868.0    0.00 
 214   19:00   0.00   86.3    17    2.8    36     6.4   868.0    0.00 
 214   19:10   0.00   85.9    17    1.8    42     5.6   868.1    0.00 
 214   19:20   0.00   85.0    18    1.4   350     2.9   868.1    0.00 
 214   19:30   0.00   83.0    20    3.7   310     6.5   868.1    0.00 
 214   19:40   0.00   82.9    20    4.0   299     6.4   868.2    0.00 
 214   19:50   0.00   82.4    20    4.6   296     5.8   868.3    0.00 
 214   20:00   0.00   82.1    21    4.1   298     5.3   868.3    0.00 
 214   20:10   0.00   81.7    21    4.0   300     5.2   868.5    0.00 
 214   20:20   0.00   81.4    21    4.7   287     6.3   868.6    0.00 
 214   20:30   0.00   81.6    21    4.2   272     5.5   868.7    0.00 
 214   20:40   0.00   79.1    23    3.8   274     4.8   868.7    0.00 
 214   20:50   0.00   79.2    23    3.4   302     4.3   868.7    0.00 
 214   21:00   0.00   80.7    22    2.7   295     3.8   868.7    0.00 
 214   21:10   0.00   79.8    23    3.0   282     3.7   868.8    0.00 
 214   21:20   0.00   76.9    26    3.3   288     3.7   868.8    0.00 
 214   21:30   0.00   77.3    26    3.0   290     3.7   868.8    0.00 
 214   21:40   0.00   77.4    25    2.6   284     3.3   868.8    0.00 
 214   21:50   0.00   78.2    24    2.2   294     3.2   868.8    0.00 
 214   22:00   0.00   79.0    24    3.7   293     4.6   868.8    0.00 
 214   22:10   0.00   79.6    23    4.9   298     8.0   869.0    0.00 
 214   22:20   0.00   80.4    21    3.6   302     7.5   869.0    0.00 
 214   22:30   0.00   80.9    20    7.7   316    14.4   869.0    0.00 
 214   22:40   0.00   82.4    18   11.6   320    16.4   868.9    0.00 
 214   22:50   0.00   82.2    19   12.0   313    16.2   868.9    0.00 
 214   23:00   0.00   82.0    19   12.7   314    19.5   868.9    0.00 
 214   23:10   0.00   81.4    20   11.9   309    17.2   869.0    0.00 
 214   23:20   0.00   81.4    20   12.6   312    18.3   868.9    0.00 
 214   23:30   0.00   81.2    20   11.9   314    16.7   868.9    0.00 
 214   23:40   0.00   80.8    21   11.8   307    16.1   868.8    0.00 
 214   23:50   0.00   80.6    21   11.4   306    15.4   868.8    0.00 
 215    0:00   0.00   80.3    22    9.5   304    12.6   868.7    0.00 
 215    0:10   0.00   79.8    22    9.0   303    12.0   868.7    0.00 
 215    0:20   0.00   79.6    22    9.3   299    12.7   868.7    0.00 
 215    0:30   0.00   80.2    22    9.5   313    14.2   868.7    0.00 
 215    0:40   0.00   80.5    22    8.9   319    14.0   868.7    0.00 
 215    0:50   0.00   79.8    23    7.4   307    10.8   868.7    0.00 
 215    1:00   0.00   79.0    23    7.6   294    10.2   868.7    0.00 
 215    1:10   0.00   78.5    23    7.7   286    10.6   868.7    0.00 
 215    1:20   0.00   78.5    23    7.4   283    10.4   868.6    0.00 
 215    1:30   0.00   78.3    23    8.2   278    11.6   868.6    0.00 
 215    1:40   0.00   78.5    23   10.3   270    12.9   868.6    0.00 
 215    1:50   0.00   78.8    21    8.9   264    12.3   868.7    0.00 
 215    2:00   0.00   78.9    22    7.1   265    10.2   868.7    0.00 
 215    2:10   0.00   77.6    23    5.4   291     7.7   868.7    0.00 
 215    2:20   0.00   77.9    23    5.5   272     7.8   868.7    0.00 
 215    2:30   0.00   77.8    23    6.7   270     9.1   868.7    0.00 
 215    2:40   0.00   77.9    23    6.8   270     9.5   868.7    0.00 
 215    2:50   0.00   78.0    22    7.7   270     9.6   868.7    0.00 
 215    3:00   0.00   77.7    22    7.4   276     9.5   868.7    0.00 

Return to Sweeney Granite Mountains graphs page.


Western Regional Climate Center,wrcc@dri.edu